This is the latest recevied weather packets stored in our database for station/object DJ3OW-13. If no packets are shown the sender has not sent any weather packets the latest 10 day(s).
| Time | Temp. | Humidity | Pressure | Rain* | Wind** | Luminosity | Snow |
|---|---|---|---|---|---|---|---|
| 1777972861 | 15° C | 93% | 1012.2 hPa | 0 mm | - | - | - |
| 1777964493 | 13.33° C | 99% | 1012.5 hPa | 0 mm | - | - | - |
| 1777957871 | 12.78° C | 99% | 1012.5 hPa | 0 mm | - | - | - |
| 1777956045 | 12.78° C | 99% | 1012.5 hPa | 0.25 mm | - | - | - |
| 1777955462 | 12.78° C | 99% | 1012.6 hPa | 0.51 mm | - | - | - |
| 1777954239 | 12.78° C | 99% | 1012.8 hPa | 1.02 mm | - | - | - |
| 1777953034 | 12.78° C | 99% | 1012.8 hPa | 1.27 mm | - | - | - |
| 1777951830 | 12.78° C | 99% | 1013 hPa | 0.51 mm | - | - | - |
| 1777947074 | 12.78° C | 99% | 1013.5 hPa | 0 mm | - | - | - |
| 1777941054 | 12.78° C | 98% | 1013.9 hPa | 0 mm | - | - | - |
| 1777936238 | 13.33° C | 98% | 1014.9 hPa | 0 mm | - | - | - |
| 1777934432 | 13.33° C | 97% | 1015.1 hPa | 0 mm | - | - | - |
| 1777930820 | 13.33° C | 97% | 1015.5 hPa | 0.25 mm | - | - | - |
| 1777927267 | 13.89° C | 96% | 1015.9 hPa | 0 mm | - | - | - |
| 1777926063 | 13.89° C | 96% | 1015.8 hPa | 0 mm | - | - | - |
| 1777922451 | 13.89° C | 94% | 1015.7 hPa | 1.52 mm | - | - | - |
| 1777921849 | 13.89° C | 93% | 1015.8 hPa | 1.52 mm | - | - | - |
| 1777920043 | 13.89° C | 89% | 1015.7 hPa | 0.51 mm | - | - | - |
| 1777917635 | 15° C | 84% | 1015.2 hPa | 0 mm | - | - | - |
| 1777910471 | 21.11° C | 56% | 1014.6 hPa | 0 mm | - | - | - |
| 1777903247 | 21.67° C | 54% | 1015.2 hPa | 0 mm | - | - | - |
| 1777902043 | 23.33° C | 52% | 1015.6 hPa | 0 mm | - | - | - |
| 1777900859 | 22.78° C | 52% | 1015.5 hPa | 0 mm | - | - | - |
| 1777897227 | 21.67° C | 58% | 1016 hPa | 0 mm | - | - | - |
| 1777890665 | 18.89° C | 67% | 1016.4 hPa | 0 mm | - | - | - |
* Rain latest hour (hover to see other rain measurements)
** Current wind speed in m/s (hover to see current wind gust speed)